Terminal Aerodrome Forecast
Issued by NWS Tulsa, OK

Current Version | Previous Version | Text Only | Print | Product List | Glossary On
Versions: 1 2 3 4 5 6 7 8 9 10 11 12 13 14 15 16 17 18 19 20
000
FTUS44 KTSA 290500
TAFTUL
TAF
KTUL 290520Z 2906/3006 VRB03KT P6SM SCT250
     FM291800 07007KT P6SM SCT100 BKN250
     FM300000 03007KT P6SM BKN100=

USA.gov is the U.S. government's official web portal to all federal, state and local government web resources and services.